sensor_id;sensor_type;location;lat;lon;timestamp;temperature;humidity
4505;DHT22;2265;48.794;9.520;2024-02-23T00:01:09;7.10;98.00
4505;DHT22;2265;48.794;9.520;2024-02-23T00:03:37;7.20;98.00
4505;DHT22;2265;48.794;9.520;2024-02-23T00:06:04;7.20;98.00
4505;DHT22;2265;48.794;9.520;2024-02-23T00:08:33;7.30;98.00
4505;DHT22;2265;48.794;9.520;2024-02-23T00:11:00;7.20;98.00
4505;DHT22;2265;48.794;9.520;2024-02-23T00:13:27;7.20;98.00
4505;DHT22;2265;48.794;9.520;2024-02-23T00:15:55;7.10;98.00
4505;DHT22;2265;48.794;9.520;2024-02-23T00:18:23;7.10;98.00
4505;DHT22;2265;48.794;9.520;2024-02-23T00:20:50;7.00;98.00
4505;DHT22;2265;48.794;9.520;2024-02-23T00:23:17;7.10;98.00
4505;DHT22;2265;48.794;9.520;2024-02-23T00:25:47;7.00;98.00
4505;DHT22;2265;48.794;9.520;2024-02-23T00:28:14;7.00;98.00
4505;DHT22;2265;48.794;9.520;2024-02-23T00:30:42;7.00;98.00
4505;DHT22;2265;48.794;9.520;2024-02-23T00:33:10;6.90;98.00
4505;DHT22;2265;48.794;9.520;2024-02-23T00:35:37;6.90;98.00
4505;DHT22;2265;48.794;9.520;2024-02-23T00:38:05;6.80;98.00
4505;DHT22;2265;48.794;9.520;2024-02-23T00:40:33;6.80;98.00
4505;DHT22;2265;48.794;9.520;2024-02-23T00:43:04;6.80;98.00
4505;DHT22;2265;48.794;9.520;2024-02-23T00:45:32;6.80;98.00
4505;DHT22;2265;48.794;9.520;2024-02-23T00:47:59;6.90;98.00
4505;DHT22;2265;48.794;9.520;2024-02-23T00:50:27;6.90;98.00
4505;DHT22;2265;48.794;9.520;2024-02-23T00:52:54;6.80;98.00
4505;DHT22;2265;48.794;9.520;2024-02-23T00:55:21;6.90;98.00
4505;DHT22;2265;48.794;9.520;2024-02-23T00:57:50;6.90;98.00
4505;DHT22;2265;48.794;9.520;2024-02-23T01:00:19;6.90;98.00
4505;DHT22;2265;48.794;9.520;2024-02-23T01:02:46;6.90;98.00
4505;DHT22;2265;48.794;9.520;2024-02-23T01:05:14;7.00;98.00
4505;DHT22;2265;48.794;9.520;2024-02-23T01:07:41;6.90;98.00
4505;DHT22;2265;48.794;9.520;2024-02-23T01:10:08;7.00;98.00
4505;DHT22;2265;48.794;9.520;2024-02-23T01:12:36;6.90;98.00
4505;DHT22;2265;48.794;9.520;2024-02-23T01:15:04;7.00;98.00
4505;DHT22;2265;48.794;9.520;2024-02-23T01:17:32;7.00;98.00
4505;DHT22;2265;48.794;9.520;2024-02-23T01:19:59;7.00;98.00
4505;DHT22;2265;48.794;9.520;2024-02-23T01:22:26;7.00;98.00
4505;DHT22;2265;48.794;9.520;2024-02-23T01:24:54;6.90;98.00
4505;DHT22;2265;48.794;9.520;2024-02-23T01:27:21;6.90;98.00
4505;DHT22;2265;48.794;9.520;2024-02-23T01:29:48;6.90;98.00
4505;DHT22;2265;48.794;9.520;2024-02-23T01:32:15;7.00;98.00
4505;DHT22;2265;48.794;9.520;2024-02-23T01:34:43;7.10;98.00
4505;DHT22;2265;48.794;9.520;2024-02-23T01:37:10;7.00;98.00
4505;DHT22;2265;48.794;9.520;2024-02-23T01:39:38;7.00;98.00
4505;DHT22;2265;48.794;9.520;2024-02-23T01:42:05;7.00;98.00
4505;DHT22;2265;48.794;9.520;2024-02-23T01:44:32;7.00;98.00
4505;DHT22;2265;48.794;9.520;2024-02-23T01:46:59;7.00;98.00
4505;DHT22;2265;48.794;9.520;2024-02-23T01:49:26;7.10;98.00
4505;DHT22;2265;48.794;9.520;2024-02-23T01:51:58;7.10;98.00
4505;DHT22;2265;48.794;9.520;2024-02-23T01:54:27;7.10;98.00
4505;DHT22;2265;48.794;9.520;2024-02-23T01:56:55;7.20;98.00
4505;DHT22;2265;48.794;9.520;2024-02-23T01:59:28;7.30;98.00
4505;DHT22;2265;48.794;9.520;2024-02-23T02:01:56;7.40;98.00
4505;DHT22;2265;48.794;9.520;2024-02-23T02:04:23;7.40;98.00
4505;DHT22;2265;48.794;9.520;2024-02-23T02:06:50;7.30;98.00
4505;DHT22;2265;48.794;9.520;2024-02-23T02:09:18;7.30;98.00
4505;DHT22;2265;48.794;9.520;2024-02-23T02:11:46;7.20;98.00
4505;DHT22;2265;48.794;9.520;2024-02-23T02:14:14;7.20;98.00
4505;DHT22;2265;48.794;9.520;2024-02-23T02:16:41;7.30;98.00
4505;DHT22;2265;48.794;9.520;2024-02-23T02:19:10;7.20;98.00
4505;DHT22;2265;48.794;9.520;2024-02-23T02:21:37;7.10;98.00
4505;DHT22;2265;48.794;9.520;2024-02-23T02:24:05;7.10;98.00
4505;DHT22;2265;48.794;9.520;2024-02-23T02:26:34;7.00;98.00
4505;DHT22;2265;48.794;9.520;2024-02-23T02:29:01;7.00;98.00
4505;DHT22;2265;48.794;9.520;2024-02-23T02:31:29;7.10;98.00
4505;DHT22;2265;48.794;9.520;2024-02-23T02:34:03;7.00;98.00
4505;DHT22;2265;48.794;9.520;2024-02-23T02:36:30;7.00;98.00
4505;DHT22;2265;48.794;9.520;2024-02-23T02:38:59;6.90;98.00
4505;DHT22;2265;48.794;9.520;2024-02-23T02:41:29;6.80;98.00
4505;DHT22;2265;48.794;9.520;2024-02-23T02:43:58;6.70;98.00
4505;DHT22;2265;48.794;9.520;2024-02-23T02:46:25;6.60;98.00
4505;DHT22;2265;48.794;9.520;2024-02-23T02:48:52;6.50;98.00
4505;DHT22;2265;48.794;9.520;2024-02-23T02:51:19;6.50;98.00
4505;DHT22;2265;48.794;9.520;2024-02-23T02:53:47;6.60;98.00
4505;DHT22;2265;48.794;9.520;2024-02-23T02:56:14;6.50;98.00
4505;DHT22;2265;48.794;9.520;2024-02-23T02:58:41;6.40;98.00
4505;DHT22;2265;48.794;9.520;2024-02-23T03:01:09;6.30;98.00
4505;DHT22;2265;48.794;9.520;2024-02-23T03:03:36;6.30;98.00
4505;DHT22;2265;48.794;9.520;2024-02-23T03:06:04;6.30;98.00
4505;DHT22;2265;48.794;9.520;2024-02-23T03:08:32;6.30;98.00
4505;DHT22;2265;48.794;9.520;2024-02-23T03:10:59;6.30;98.00
4505;DHT22;2265;48.794;9.520;2024-02-23T03:13:27;6.30;98.00
4505;DHT22;2265;48.794;9.520;2024-02-23T03:15:54;6.30;98.00
4505;DHT22;2265;48.794;9.520;2024-02-23T03:18:23;6.30;98.00
4505;DHT22;2265;48.794;9.520;2024-02-23T03:20:51;6.30;98.00
4505;DHT22;2265;48.794;9.520;2024-02-23T03:23:18;6.40;98.00
4505;DHT22;2265;48.794;9.520;2024-02-23T03:25:45;6.40;98.00
4505;DHT22;2265;48.794;9.520;2024-02-23T03:28:12;6.40;98.00
4505;DHT22;2265;48.794;9.520;2024-02-23T03:30:39;6.40;98.00
4505;DHT22;2265;48.794;9.520;2024-02-23T03:33:07;6.40;98.00
4505;DHT22;2265;48.794;9.520;2024-02-23T03:35:35;6.30;98.00
4505;DHT22;2265;48.794;9.520;2024-02-23T03:38:02;6.30;98.00
4505;DHT22;2265;48.794;9.520;2024-02-23T03:40:29;6.30;98.00
4505;DHT22;2265;48.794;9.520;2024-02-23T03:42:56;6.40;98.00
4505;DHT22;2265;48.794;9.520;2024-02-23T03:45:23;6.30;98.00
4505;DHT22;2265;48.794;9.520;2024-02-23T03:47:50;6.30;98.00
4505;DHT22;2265;48.794;9.520;2024-02-23T03:50:17;6.20;98.00
4505;DHT22;2265;48.794;9.520;2024-02-23T03:52:46;6.20;98.00
4505;DHT22;2265;48.794;9.520;2024-02-23T03:55:13;6.20;98.00
4505;DHT22;2265;48.794;9.520;2024-02-23T03:57:40;6.30;98.00
4505;DHT22;2265;48.794;9.520;2024-02-23T04:00:08;6.30;98.00
4505;DHT22;2265;48.794;9.520;2024-02-23T04:02:35;6.30;98.00
4505;DHT22;2265;48.794;9.520;2024-02-23T04:05:03;6.20;98.00
4505;DHT22;2265;48.794;9.520;2024-02-23T04:07:31;6.30;98.00
4505;DHT22;2265;48.794;9.520;2024-02-23T04:10:02;6.30;98.00
4505;DHT22;2265;48.794;9.520;2024-02-23T04:12:30;6.30;98.00
4505;DHT22;2265;48.794;9.520;2024-02-23T04:14:57;6.30;98.00
4505;DHT22;2265;48.794;9.520;2024-02-23T04:17:25;6.30;98.00
4505;DHT22;2265;48.794;9.520;2024-02-23T04:19:52;6.30;98.00
4505;DHT22;2265;48.794;9.520;2024-02-23T04:22:19;6.30;98.00
4505;DHT22;2265;48.794;9.520;2024-02-23T04:24:46;6.30;98.00
4505;DHT22;2265;48.794;9.520;2024-02-23T04:27:15;6.40;98.00
4505;DHT22;2265;48.794;9.520;2024-02-23T04:29:42;6.50;98.00
4505;DHT22;2265;48.794;9.520;2024-02-23T04:32:11;6.60;98.00
4505;DHT22;2265;48.794;9.520;2024-02-23T04:34:38;6.70;98.00
4505;DHT22;2265;48.794;9.520;2024-02-23T04:37:07;6.70;98.00
4505;DHT22;2265;48.794;9.520;2024-02-23T04:39:36;6.70;98.00
4505;DHT22;2265;48.794;9.520;2024-02-23T04:42:04;6.70;98.00
4505;DHT22;2265;48.794;9.520;2024-02-23T04:44:32;6.70;98.00
4505;DHT22;2265;48.794;9.520;2024-02-23T04:46:59;6.80;98.00
4505;DHT22;2265;48.794;9.520;2024-02-23T04:49:26;6.60;98.00
4505;DHT22;2265;48.794;9.520;2024-02-23T04:51:54;6.50;98.00
4505;DHT22;2265;48.794;9.520;2024-02-23T04:54:22;6.30;98.00
4505;DHT22;2265;48.794;9.520;2024-02-23T04:56:51;6.20;98.00
4505;DHT22;2265;48.794;9.520;2024-02-23T04:59:18;6.20;98.00
4505;DHT22;2265;48.794;9.520;2024-02-23T05:01:47;6.20;98.00
4505;DHT22;2265;48.794;9.520;2024-02-23T05:04:14;6.20;98.00
4505;DHT22;2265;48.794;9.520;2024-02-23T05:06:41;6.20;98.00
4505;DHT22;2265;48.794;9.520;2024-02-23T05:09:09;6.20;98.00
4505;DHT22;2265;48.794;9.520;2024-02-23T05:11:36;6.30;98.00
4505;DHT22;2265;48.794;9.520;2024-02-23T05:14:03;6.30;98.00
4505;DHT22;2265;48.794;9.520;2024-02-23T05:16:31;6.30;98.00
4505;DHT22;2265;48.794;9.520;2024-02-23T05:18:59;6.40;98.00
4505;DHT22;2265;48.794;9.520;2024-02-23T05:21:26;6.60;98.00
4505;DHT22;2265;48.794;9.520;2024-02-23T05:23:54;6.60;98.00
4505;DHT22;2265;48.794;9.520;2024-02-23T05:26:21;6.50;98.00
4505;DHT22;2265;48.794;9.520;2024-02-23T05:28:48;6.50;98.00
4505;DHT22;2265;48.794;9.520;2024-02-23T05:31:15;6.60;98.00
4505;DHT22;2265;48.794;9.520;2024-02-23T05:33:42;6.60;98.00
4505;DHT22;2265;48.794;9.520;2024-02-23T05:36:11;6.60;98.00
4505;DHT22;2265;48.794;9.520;2024-02-23T05:38:38;6.60;98.00
4505;DHT22;2265;48.794;9.520;2024-02-23T05:41:05;6.60;98.00
4505;DHT22;2265;48.794;9.520;2024-02-23T05:43:32;6.60;98.00
4505;DHT22;2265;48.794;9.520;2024-02-23T05:46:00;6.60;98.00
4505;DHT22;2265;48.794;9.520;2024-02-23T05:48:27;6.60;98.00
4505;DHT22;2265;48.794;9.520;2024-02-23T05:50:54;6.60;98.00
4505;DHT22;2265;48.794;9.520;2024-02-23T05:53:23;6.60;98.00
4505;DHT22;2265;48.794;9.520;2024-02-23T05:55:51;6.50;98.00
4505;DHT22;2265;48.794;9.520;2024-02-23T05:58:18;6.40;98.00
4505;DHT22;2265;48.794;9.520;2024-02-23T06:00:46;6.30;98.00
4505;DHT22;2265;48.794;9.520;2024-02-23T06:03:14;6.30;98.00
4505;DHT22;2265;48.794;9.520;2024-02-23T06:05:41;6.30;98.00
4505;DHT22;2265;48.794;9.520;2024-02-23T06:08:08;6.30;98.00
4505;DHT22;2265;48.794;9.520;2024-02-23T06:10:36;6.30;98.00
4505;DHT22;2265;48.794;9.520;2024-02-23T06:13:04;6.30;98.00
4505;DHT22;2265;48.794;9.520;2024-02-23T06:15:34;6.30;98.00
4505;DHT22;2265;48.794;9.520;2024-02-23T06:18:01;6.30;98.00
4505;DHT22;2265;48.794;9.520;2024-02-23T06:20:28;6.30;98.00
4505;DHT22;2265;48.794;9.520;2024-02-23T06:22:55;6.10;98.00
4505;DHT22;2265;48.794;9.520;2024-02-23T06:25:22;6.00;98.00
4505;DHT22;2265;48.794;9.520;2024-02-23T06:27:53;5.90;98.00
4505;DHT22;2265;48.794;9.520;2024-02-23T06:30:20;5.80;98.00
4505;DHT22;2265;48.794;9.520;2024-02-23T06:32:47;5.80;98.00
4505;DHT22;2265;48.794;9.520;2024-02-23T06:35:14;5.80;98.00
4505;DHT22;2265;48.794;9.520;2024-02-23T06:37:41;5.80;98.00
4505;DHT22;2265;48.794;9.520;2024-02-23T06:40:09;5.80;98.00
4505;DHT22;2265;48.794;9.520;2024-02-23T06:42:36;5.90;98.00
4505;DHT22;2265;48.794;9.520;2024-02-23T06:45:06;5.90;98.00
4505;DHT22;2265;48.794;9.520;2024-02-23T06:47:34;6.10;98.00
4505;DHT22;2265;48.794;9.520;2024-02-23T06:50:01;6.10;98.00
4505;DHT22;2265;48.794;9.520;2024-02-23T06:52:29;6.00;98.00
4505;DHT22;2265;48.794;9.520;2024-02-23T06:54:56;5.90;98.00
4505;DHT22;2265;48.794;9.520;2024-02-23T06:57:23;5.80;98.00
4505;DHT22;2265;48.794;9.520;2024-02-23T06:59:52;5.80;98.00
4505;DHT22;2265;48.794;9.520;2024-02-23T07:02:20;5.90;98.00
4505;DHT22;2265;48.794;9.520;2024-02-23T07:04:47;5.90;98.00
4505;DHT22;2265;48.794;9.520;2024-02-23T07:07:14;5.90;98.00
4505;DHT22;2265;48.794;9.520;2024-02-23T07:09:42;5.90;98.00
4505;DHT22;2265;48.794;9.520;2024-02-23T07:12:09;5.90;98.00
4505;DHT22;2265;48.794;9.520;2024-02-23T07:14:39;5.90;98.00
4505;DHT22;2265;48.794;9.520;2024-02-23T07:17:06;5.80;98.00
4505;DHT22;2265;48.794;9.520;2024-02-23T07:19:35;5.90;98.00
4505;DHT22;2265;48.794;9.520;2024-02-23T07:22:02;6.00;98.00
4505;DHT22;2265;48.794;9.520;2024-02-23T07:24:30;6.00;98.00
4505;DHT22;2265;48.794;9.520;2024-02-23T07:26:58;5.90;98.00
4505;DHT22;2265;48.794;9.520;2024-02-23T07:29:25;6.00;98.00
4505;DHT22;2265;48.794;9.520;2024-02-23T07:31:53;6.00;98.00
4505;DHT22;2265;48.794;9.520;2024-02-23T07:34:20;6.00;98.00
4505;DHT22;2265;48.794;9.520;2024-02-23T07:36:51;6.00;98.00
4505;DHT22;2265;48.794;9.520;2024-02-23T07:39:19;6.00;98.00
4505;DHT22;2265;48.794;9.520;2024-02-23T07:41:46;6.10;98.00
4505;DHT22;2265;48.794;9.520;2024-02-23T07:44:13;6.20;98.00
4505;DHT22;2265;48.794;9.520;2024-02-23T07:46:41;6.30;98.00
4505;DHT22;2265;48.794;9.520;2024-02-23T07:49:09;6.40;98.00
4505;DHT22;2265;48.794;9.520;2024-02-23T07:51:36;6.50;98.00
4505;DHT22;2265;48.794;9.520;2024-02-23T07:54:05;6.70;98.00
4505;DHT22;2265;48.794;9.520;2024-02-23T07:56:32;6.70;98.00
4505;DHT22;2265;48.794;9.520;2024-02-23T07:58:59;6.90;98.00
4505;DHT22;2265;48.794;9.520;2024-02-23T08:01:28;7.00;98.00
4505;DHT22;2265;48.794;9.520;2024-02-23T08:03:56;7.00;98.00
4505;DHT22;2265;48.794;9.520;2024-02-23T08:06:24;7.10;98.00
4505;DHT22;2265;48.794;9.520;2024-02-23T08:08:51;7.20;98.00
4505;DHT22;2265;48.794;9.520;2024-02-23T08:11:20;7.20;98.00
4505;DHT22;2265;48.794;9.520;2024-02-23T08:13:48;7.20;98.00
4505;DHT22;2265;48.794;9.520;2024-02-23T08:16:16;7.30;98.00
4505;DHT22;2265;48.794;9.520;2024-02-23T08:18:43;7.30;98.00
4505;DHT22;2265;48.794;9.520;2024-02-23T08:21:10;7.30;98.00
4505;DHT22;2265;48.794;9.520;2024-02-23T08:23:38;7.30;98.00
4505;DHT22;2265;48.794;9.520;2024-02-23T08:26:07;7.30;98.00
4505;DHT22;2265;48.794;9.520;2024-02-23T08:28:38;7.20;98.00
4505;DHT22;2265;48.794;9.520;2024-02-23T08:31:05;7.20;98.00
4505;DHT22;2265;48.794;9.520;2024-02-23T08:33:32;7.30;98.00
4505;DHT22;2265;48.794;9.520;2024-02-23T08:36:00;7.30;98.00
4505;DHT22;2265;48.794;9.520;2024-02-23T08:38:27;7.50;98.00
4505;DHT22;2265;48.794;9.520;2024-02-23T08:40:54;7.50;98.00
4505;DHT22;2265;48.794;9.520;2024-02-23T08:43:21;7.50;98.00
4505;DHT22;2265;48.794;9.520;2024-02-23T08:45:50;7.60;98.00
4505;DHT22;2265;48.794;9.520;2024-02-23T08:48:17;7.60;98.00
4505;DHT22;2265;48.794;9.520;2024-02-23T08:50:44;7.70;98.00
4505;DHT22;2265;48.794;9.520;2024-02-23T08:53:20;7.70;98.00
4505;DHT22;2265;48.794;9.520;2024-02-23T08:56:03;7.70;98.00
4505;DHT22;2265;48.794;9.520;2024-02-23T08:58:30;7.80;98.00
4505;DHT22;2265;48.794;9.520;2024-02-23T09:00:59;7.60;98.00
4505;DHT22;2265;48.794;9.520;2024-02-23T09:03:27;7.60;98.00
4505;DHT22;2265;48.794;9.520;2024-02-23T09:05:54;7.60;98.00
4505;DHT22;2265;48.794;9.520;2024-02-23T09:08:21;7.40;98.00
4505;DHT22;2265;48.794;9.520;2024-02-23T09:10:48;7.50;98.00
4505;DHT22;2265;48.794;9.520;2024-02-23T09:13:15;7.50;98.00
4505;DHT22;2265;48.794;9.520;2024-02-23T09:15:43;7.60;98.00
4505;DHT22;2265;48.794;9.520;2024-02-23T09:18:11;7.50;98.00
4505;DHT22;2265;48.794;9.520;2024-02-23T09:20:39;7.50;98.00
4505;DHT22;2265;48.794;9.520;2024-02-23T09:23:06;7.60;98.00
4505;DHT22;2265;48.794;9.520;2024-02-23T09:25:33;7.70;98.00
4505;DHT22;2265;48.794;9.520;2024-02-23T09:28:00;7.70;98.00
4505;DHT22;2265;48.794;9.520;2024-02-23T09:30:27;7.70;98.00
4505;DHT22;2265;48.794;9.520;2024-02-23T09:32:54;7.70;98.00
4505;DHT22;2265;48.794;9.520;2024-02-23T09:35:23;8.30;98.00
4505;DHT22;2265;48.794;9.520;2024-02-23T09:37:50;9.40;98.00
4505;DHT22;2265;48.794;9.520;2024-02-23T09:40:19;9.90;98.00
4505;DHT22;2265;48.794;9.520;2024-02-23T09:42:52;9.80;98.00
4505;DHT22;2265;48.794;9.520;2024-02-23T09:45:22;9.70;98.00
4505;DHT22;2265;48.794;9.520;2024-02-23T09:47:49;9.50;98.00
4505;DHT22;2265;48.794;9.520;2024-02-23T09:50:17;9.20;98.00
4505;DHT22;2265;48.794;9.520;2024-02-23T09:52:48;9.10;98.00
4505;DHT22;2265;48.794;9.520;2024-02-23T09:55:16;9.20;98.00
4505;DHT22;2265;48.794;9.520;2024-02-23T09:57:44;9.20;98.00
4505;DHT22;2265;48.794;9.520;2024-02-23T10:00:13;9.30;98.00
4505;DHT22;2265;48.794;9.520;2024-02-23T10:02:43;9.20;98.00
4505;DHT22;2265;48.794;9.520;2024-02-23T10:05:10;9.20;98.00
4505;DHT22;2265;48.794;9.520;2024-02-23T10:07:38;9.10;98.00
4505;DHT22;2265;48.794;9.520;2024-02-23T10:10:09;8.90;98.00
4505;DHT22;2265;48.794;9.520;2024-02-23T10:12:36;9.00;98.00
4505;DHT22;2265;48.794;9.520;2024-02-23T10:15:05;9.00;98.00
4505;DHT22;2265;48.794;9.520;2024-02-23T10:17:33;9.10;98.00
4505;DHT22;2265;48.794;9.520;2024-02-23T10:20:00;9.20;98.00
4505;DHT22;2265;48.794;9.520;2024-02-23T10:22:30;9.40;98.00
4505;DHT22;2265;48.794;9.520;2024-02-23T10:24:58;9.50;98.00
4505;DHT22;2265;48.794;9.520;2024-02-23T10:27:27;9.50;98.00
4505;DHT22;2265;48.794;9.520;2024-02-23T10:29:54;9.40;98.00
4505;DHT22;2265;48.794;9.520;2024-02-23T10:32:21;9.40;98.00
4505;DHT22;2265;48.794;9.520;2024-02-23T10:34:49;9.40;98.00
4505;DHT22;2265;48.794;9.520;2024-02-23T10:37:17;9.40;98.00
4505;DHT22;2265;48.794;9.520;2024-02-23T10:39:46;9.00;98.00
4505;DHT22;2265;48.794;9.520;2024-02-23T10:44:43;9.00;98.00
4505;DHT22;2265;48.794;9.520;2024-02-23T10:47:11;8.80;98.00
4505;DHT22;2265;48.794;9.520;2024-02-23T10:49:39;9.00;98.00
4505;DHT22;2265;48.794;9.520;2024-02-23T10:52:09;9.10;98.00
4505;DHT22;2265;48.794;9.520;2024-02-23T10:54:38;9.10;98.00
4505;DHT22;2265;48.794;9.520;2024-02-23T10:57:06;9.10;98.00
4505;DHT22;2265;48.794;9.520;2024-02-23T10:59:34;9.10;98.00
4505;DHT22;2265;48.794;9.520;2024-02-23T11:02:04;9.10;98.00
4505;DHT22;2265;48.794;9.520;2024-02-23T11:04:33;9.20;98.00
4505;DHT22;2265;48.794;9.520;2024-02-23T11:07:01;9.20;98.00
4505;DHT22;2265;48.794;9.520;2024-02-23T11:09:33;9.30;98.00
4505;DHT22;2265;48.794;9.520;2024-02-23T11:12:04;9.40;98.00
4505;DHT22;2265;48.794;9.520;2024-02-23T11:14:32;9.40;98.00
4505;DHT22;2265;48.794;9.520;2024-02-23T11:16:59;9.40;98.00
4505;DHT22;2265;48.794;9.520;2024-02-23T11:19:38;9.50;98.00
4505;DHT22;2265;48.794;9.520;2024-02-23T11:22:09;9.50;98.00
4505;DHT22;2265;48.794;9.520;2024-02-23T11:24:42;9.40;98.00
4505;DHT22;2265;48.794;9.520;2024-02-23T11:27:14;9.20;98.00
4505;DHT22;2265;48.794;9.520;2024-02-23T11:29:43;9.30;98.00
4505;DHT22;2265;48.794;9.520;2024-02-23T11:32:13;9.40;98.00
4505;DHT22;2265;48.794;9.520;2024-02-23T11:34:53;9.40;98.00
4505;DHT22;2265;48.794;9.520;2024-02-23T11:37:20;9.50;98.00
4505;DHT22;2265;48.794;9.520;2024-02-23T11:39:48;9.60;98.00
4505;DHT22;2265;48.794;9.520;2024-02-23T11:42:16;9.50;98.00
4505;DHT22;2265;48.794;9.520;2024-02-23T11:44:44;9.60;98.00
4505;DHT22;2265;48.794;9.520;2024-02-23T11:47:11;9.60;98.00
4505;DHT22;2265;48.794;9.520;2024-02-23T11:49:39;9.70;98.00
4505;DHT22;2265;48.794;9.520;2024-02-23T11:52:07;9.70;98.00
4505;DHT22;2265;48.794;9.520;2024-02-23T11:54:34;9.70;98.00
4505;DHT22;2265;48.794;9.520;2024-02-23T11:57:07;9.60;98.00
4505;DHT22;2265;48.794;9.520;2024-02-23T11:59:34;9.70;98.00
4505;DHT22;2265;48.794;9.520;2024-02-23T12:02:01;9.60;98.00
4505;DHT22;2265;48.794;9.520;2024-02-23T12:04:30;9.60;98.00
4505;DHT22;2265;48.794;9.520;2024-02-23T12:06:58;9.60;98.00
4505;DHT22;2265;48.794;9.520;2024-02-23T12:09:26;9.60;98.00
4505;DHT22;2265;48.794;9.520;2024-02-23T12:11:54;9.60;98.00
4505;DHT22;2265;48.794;9.520;2024-02-23T12:14:21;9.80;98.00
4505;DHT22;2265;48.794;9.520;2024-02-23T12:16:48;9.80;98.00
4505;DHT22;2265;48.794;9.520;2024-02-23T12:19:15;9.80;98.00
4505;DHT22;2265;48.794;9.520;2024-02-23T12:21:45;9.90;98.00
4505;DHT22;2265;48.794;9.520;2024-02-23T12:24:12;9.80;98.00
4505;DHT22;2265;48.794;9.520;2024-02-23T12:26:41;9.90;98.00
4505;DHT22;2265;48.794;9.520;2024-02-23T12:29:10;9.90;98.00
4505;DHT22;2265;48.794;9.520;2024-02-23T12:31:37;9.80;98.00
4505;DHT22;2265;48.794;9.520;2024-02-23T12:34:06;9.90;98.00
4505;DHT22;2265;48.794;9.520;2024-02-23T12:36:36;10.00;98.00
4505;DHT22;2265;48.794;9.520;2024-02-23T12:39:04;10.10;98.00
4505;DHT22;2265;48.794;9.520;2024-02-23T12:41:31;10.10;98.00
4505;DHT22;2265;48.794;9.520;2024-02-23T12:43:59;10.20;98.00
4505;DHT22;2265;48.794;9.520;2024-02-23T12:46:27;10.90;98.00
4505;DHT22;2265;48.794;9.520;2024-02-23T12:48:54;10.90;98.00
4505;DHT22;2265;48.794;9.520;2024-02-23T12:51:25;10.80;98.00
4505;DHT22;2265;48.794;9.520;2024-02-23T12:53:52;10.70;98.00
4505;DHT22;2265;48.794;9.520;2024-02-23T12:56:21;10.70;98.00
4505;DHT22;2265;48.794;9.520;2024-02-23T12:58:48;10.80;98.00
4505;DHT22;2265;48.794;9.520;2024-02-23T13:01:17;11.00;98.00
4505;DHT22;2265;48.794;9.520;2024-02-23T13:03:44;10.90;98.00
4505;DHT22;2265;48.794;9.520;2024-02-23T13:06:12;10.90;98.00
4505;DHT22;2265;48.794;9.520;2024-02-23T13:08:48;11.00;98.00
4505;DHT22;2265;48.794;9.520;2024-02-23T13:11:15;11.10;98.00
4505;DHT22;2265;48.794;9.520;2024-02-23T13:13:42;11.00;98.00
4505;DHT22;2265;48.794;9.520;2024-02-23T13:16:10;11.00;98.00
4505;DHT22;2265;48.794;9.520;2024-02-23T13:18:43;11.00;98.00
4505;DHT22;2265;48.794;9.520;2024-02-23T13:21:12;10.90;98.00
4505;DHT22;2265;48.794;9.520;2024-02-23T13:23:39;10.90;98.00
4505;DHT22;2265;48.794;9.520;2024-02-23T13:26:07;10.90;98.00
4505;DHT22;2265;48.794;9.520;2024-02-23T13:28:36;10.80;98.00
4505;DHT22;2265;48.794;9.520;2024-02-23T13:31:03;10.80;98.00
4505;DHT22;2265;48.794;9.520;2024-02-23T13:33:30;10.80;98.00
4505;DHT22;2265;48.794;9.520;2024-02-23T13:35:59;10.90;98.00
4505;DHT22;2265;48.794;9.520;2024-02-23T13:38:26;10.90;98.00
4505;DHT22;2265;48.794;9.520;2024-02-23T13:40:53;11.00;98.00
4505;DHT22;2265;48.794;9.520;2024-02-23T13:43:20;11.20;98.00
4505;DHT22;2265;48.794;9.520;2024-02-23T13:45:49;11.30;98.00
4505;DHT22;2265;48.794;9.520;2024-02-23T13:48:17;11.30;98.00
4505;DHT22;2265;48.794;9.520;2024-02-23T13:50:45;11.20;98.00
4505;DHT22;2265;48.794;9.520;2024-02-23T13:53:14;11.10;98.00
4505;DHT22;2265;48.794;9.520;2024-02-23T13:55:41;11.10;98.00
4505;DHT22;2265;48.794;9.520;2024-02-23T13:58:09;11.10;98.00
4505;DHT22;2265;48.794;9.520;2024-02-23T14:00:37;11.10;98.00
4505;DHT22;2265;48.794;9.520;2024-02-23T14:03:05;11.00;98.00
4505;DHT22;2265;48.794;9.520;2024-02-23T14:05:32;11.10;98.00
4505;DHT22;2265;48.794;9.520;2024-02-23T14:08:00;11.10;98.00
4505;DHT22;2265;48.794;9.520;2024-02-23T14:10:28;11.10;98.00
4505;DHT22;2265;48.794;9.520;2024-02-23T14:12:55;11.00;98.00
4505;DHT22;2265;48.794;9.520;2024-02-23T14:15:22;11.10;98.00
4505;DHT22;2265;48.794;9.520;2024-02-23T14:17:50;11.00;98.00
4505;DHT22;2265;48.794;9.520;2024-02-23T14:20:19;10.90;98.00
4505;DHT22;2265;48.794;9.520;2024-02-23T14:22:46;10.80;98.00
4505;DHT22;2265;48.794;9.520;2024-02-23T14:25:16;10.60;98.00
4505;DHT22;2265;48.794;9.520;2024-02-23T14:27:44;10.60;98.00
4505;DHT22;2265;48.794;9.520;2024-02-23T14:30:11;10.60;98.00
4505;DHT22;2265;48.794;9.520;2024-02-23T14:32:39;10.50;98.00
4505;DHT22;2265;48.794;9.520;2024-02-23T14:35:08;10.50;98.00
4505;DHT22;2265;48.794;9.520;2024-02-23T14:37:36;10.50;98.00
4505;DHT22;2265;48.794;9.520;2024-02-23T14:40:03;10.30;98.00
4505;DHT22;2265;48.794;9.520;2024-02-23T14:42:30;10.20;98.00
4505;DHT22;2265;48.794;9.520;2024-02-23T14:45:01;10.30;98.00
4505;DHT22;2265;48.794;9.520;2024-02-23T14:47:29;10.40;98.00
4505;DHT22;2265;48.794;9.520;2024-02-23T14:49:56;10.50;98.00
4505;DHT22;2265;48.794;9.520;2024-02-23T14:52:23;10.50;98.00
4505;DHT22;2265;48.794;9.520;2024-02-23T14:54:51;10.50;98.00
4505;DHT22;2265;48.794;9.520;2024-02-23T14:57:19;10.60;98.00
4505;DHT22;2265;48.794;9.520;2024-02-23T14:59:46;10.90;98.00
4505;DHT22;2265;48.794;9.520;2024-02-23T15:02:19;11.20;98.00
4505;DHT22;2265;48.794;9.520;2024-02-23T15:04:46;11.40;98.00
4505;DHT22;2265;48.794;9.520;2024-02-23T15:07:14;11.80;98.00
4505;DHT22;2265;48.794;9.520;2024-02-23T15:09:41;12.00;98.00
4505;DHT22;2265;48.794;9.520;2024-02-23T15:12:09;12.00;98.00
4505;DHT22;2265;48.794;9.520;2024-02-23T15:14:36;12.20;98.00
4505;DHT22;2265;48.794;9.520;2024-02-23T15:17:03;12.90;98.00
4505;DHT22;2265;48.794;9.520;2024-02-23T15:19:32;13.70;98.00
4505;DHT22;2265;48.794;9.520;2024-02-23T15:21:59;13.50;98.00
4505;DHT22;2265;48.794;9.520;2024-02-23T15:24:26;13.40;98.00
4505;DHT22;2265;48.794;9.520;2024-02-23T15:26:53;13.70;98.00
4505;DHT22;2265;48.794;9.520;2024-02-23T15:29:20;13.50;98.00
4505;DHT22;2265;48.794;9.520;2024-02-23T15:31:47;13.20;98.00
4505;DHT22;2265;48.794;9.520;2024-02-23T15:34:14;12.80;98.00
4505;DHT22;2265;48.794;9.520;2024-02-23T15:36:43;12.60;98.00
4505;DHT22;2265;48.794;9.520;2024-02-23T15:39:10;12.30;98.00
4505;DHT22;2265;48.794;9.520;2024-02-23T15:41:38;11.90;98.00
4505;DHT22;2265;48.794;9.520;2024-02-23T15:44:06;11.70;98.00
4505;DHT22;2265;48.794;9.520;2024-02-23T15:46:33;11.40;98.00
4505;DHT22;2265;48.794;9.520;2024-02-23T15:49:01;11.30;98.00
4505;DHT22;2265;48.794;9.520;2024-02-23T15:51:28;11.30;98.00
4505;DHT22;2265;48.794;9.520;2024-02-23T15:54:02;11.30;98.00
4505;DHT22;2265;48.794;9.520;2024-02-23T15:56:29;11.30;98.00
4505;DHT22;2265;48.794;9.520;2024-02-23T15:58:56;11.20;98.00
4505;DHT22;2265;48.794;9.520;2024-02-23T16:01:23;11.20;98.00
4505;DHT22;2265;48.794;9.520;2024-02-23T16:03:50;11.50;98.00
4505;DHT22;2265;48.794;9.520;2024-02-23T16:06:17;12.20;98.00
4505;DHT22;2265;48.794;9.520;2024-02-23T16:08:46;12.60;98.00
4505;DHT22;2265;48.794;9.520;2024-02-23T16:11:15;12.60;98.00
4505;DHT22;2265;48.794;9.520;2024-02-23T16:13:43;12.40;98.00
4505;DHT22;2265;48.794;9.520;2024-02-23T16:16:11;12.10;98.00
4505;DHT22;2265;48.794;9.520;2024-02-23T16:18:40;11.70;98.00
4505;DHT22;2265;48.794;9.520;2024-02-23T16:21:07;11.50;98.00